sensor_id;sensor_type;location;lat;lon;timestamp;temperature;humidity
21425;DHT22;10873;51.132;16.848;2022-10-16T00:00:57;26.30;60.40
21425;DHT22;10873;51.132;16.848;2022-10-16T00:03:34;26.30;60.40
21425;DHT22;10873;51.132;16.848;2022-10-16T00:06:00;26.30;60.40
21425;DHT22;10873;51.132;16.848;2022-10-16T00:08:28;26.30;60.40
21425;DHT22;10873;51.132;16.848;2022-10-16T00:10:59;26.30;60.30
21425;DHT22;10873;51.132;16.848;2022-10-16T00:13:25;26.30;60.30
21425;DHT22;10873;51.132;16.848;2022-10-16T00:15:55;26.30;60.20
21425;DHT22;10873;51.132;16.848;2022-10-16T00:18:21;26.30;60.20
21425;DHT22;10873;51.132;16.848;2022-10-16T00:20:47;26.30;60.20
21425;DHT22;10873;51.132;16.848;2022-10-16T00:23:13;26.30;60.20
21425;DHT22;10873;51.132;16.848;2022-10-16T00:25:41;26.30;60.10
21425;DHT22;10873;51.132;16.848;2022-10-16T00:28:07;26.30;60.10
21425;DHT22;10873;51.132;16.848;2022-10-16T00:30:33;26.30;60.20
21425;DHT22;10873;51.132;16.848;2022-10-16T00:33:03;26.30;60.10
21425;DHT22;10873;51.132;16.848;2022-10-16T00:35:30;26.30;60.20
21425;DHT22;10873;51.132;16.848;2022-10-16T00:37:56;26.30;60.20
21425;DHT22;10873;51.132;16.848;2022-10-16T00:40:22;26.30;60.20
21425;DHT22;10873;51.132;16.848;2022-10-16T00:42:50;26.30;60.20
21425;DHT22;10873;51.132;16.848;2022-10-16T00:45:16;26.30;60.20
21425;DHT22;10873;51.132;16.848;2022-10-16T00:47:43;26.30;60.20
21425;DHT22;10873;51.132;16.848;2022-10-16T00:50:16;26.30;60.30
21425;DHT22;10873;51.132;16.848;2022-10-16T00:52:46;26.30;60.30
21425;DHT22;10873;51.132;16.848;2022-10-16T00:55:14;26.20;60.30
21425;DHT22;10873;51.132;16.848;2022-10-16T00:57:41;26.20;60.30
21425;DHT22;10873;51.132;16.848;2022-10-16T01:00:12;26.20;60.30
21425;DHT22;10873;51.132;16.848;2022-10-16T01:02:38;26.20;60.40
21425;DHT22;10873;51.132;16.848;2022-10-16T01:05:05;26.20;60.40
21425;DHT22;10873;51.132;16.848;2022-10-16T01:07:40;26.20;60.40
21425;DHT22;10873;51.132;16.848;2022-10-16T01:10:17;26.20;60.40
21425;DHT22;10873;51.132;16.848;2022-10-16T01:12:52;26.20;60.50
21425;DHT22;10873;51.132;16.848;2022-10-16T01:15:26;26.20;60.50
21425;DHT22;10873;51.132;16.848;2022-10-16T01:17:57;26.20;60.60
21425;DHT22;10873;51.132;16.848;2022-10-16T01:20:29;26.20;60.60
21425;DHT22;10873;51.132;16.848;2022-10-16T01:23:06;26.20;60.60
21425;DHT22;10873;51.132;16.848;2022-10-16T01:25:56;26.20;60.60
21425;DHT22;10873;51.132;16.848;2022-10-16T01:28:28;26.20;60.60
21425;DHT22;10873;51.132;16.848;2022-10-16T01:30:59;26.20;60.60
21425;DHT22;10873;51.132;16.848;2022-10-16T01:33:30;26.20;60.60
21425;DHT22;10873;51.132;16.848;2022-10-16T01:36:02;26.20;60.70
21425;DHT22;10873;51.132;16.848;2022-10-16T01:38:33;26.10;60.60
21425;DHT22;10873;51.132;16.848;2022-10-16T01:41:02;26.10;60.60
21425;DHT22;10873;51.132;16.848;2022-10-16T01:43:34;26.10;60.60
21425;DHT22;10873;51.132;16.848;2022-10-16T01:46:03;26.20;60.70
21425;DHT22;10873;51.132;16.848;2022-10-16T01:48:29;26.20;60.60
21425;DHT22;10873;51.132;16.848;2022-10-16T01:51:00;26.20;60.60
21425;DHT22;10873;51.132;16.848;2022-10-16T01:53:28;26.20;60.40
21425;DHT22;10873;51.132;16.848;2022-10-16T01:55:55;26.30;60.50
21425;DHT22;10873;51.132;16.848;2022-10-16T01:58:24;26.30;60.50
21425;DHT22;10873;51.132;16.848;2022-10-16T02:00:53;26.30;60.50
21425;DHT22;10873;51.132;16.848;2022-10-16T02:03:20;26.30;60.50
21425;DHT22;10873;51.132;16.848;2022-10-16T02:05:50;26.30;60.70
21425;DHT22;10873;51.132;16.848;2022-10-16T02:08:17;26.30;60.50
21425;DHT22;10873;51.132;16.848;2022-10-16T02:10:44;26.30;60.60
21425;DHT22;10873;51.132;16.848;2022-10-16T02:13:12;26.30;60.50
21425;DHT22;10873;51.132;16.848;2022-10-16T02:15:39;26.30;60.60
21425;DHT22;10873;51.132;16.848;2022-10-16T02:18:07;26.30;60.60
21425;DHT22;10873;51.132;16.848;2022-10-16T02:20:45;26.30;60.60
21425;DHT22;10873;51.132;16.848;2022-10-16T02:23:19;26.30;60.60
21425;DHT22;10873;51.132;16.848;2022-10-16T02:25:47;26.30;60.60
21425;DHT22;10873;51.132;16.848;2022-10-16T02:28:17;26.30;60.60
21425;DHT22;10873;51.132;16.848;2022-10-16T02:30:48;26.30;60.60
21425;DHT22;10873;51.132;16.848;2022-10-16T02:33:19;26.30;60.60
21425;DHT22;10873;51.132;16.848;2022-10-16T02:35:48;26.30;60.60
21425;DHT22;10873;51.132;16.848;2022-10-16T02:38:17;26.30;60.70
21425;DHT22;10873;51.132;16.848;2022-10-16T02:40:44;26.30;60.70
21425;DHT22;10873;51.132;16.848;2022-10-16T02:43:11;26.20;60.60
21425;DHT22;10873;51.132;16.848;2022-10-16T02:45:38;26.30;60.70
21425;DHT22;10873;51.132;16.848;2022-10-16T02:48:04;26.20;60.70
21425;DHT22;10873;51.132;16.848;2022-10-16T02:50:32;26.20;60.70
21425;DHT22;10873;51.132;16.848;2022-10-16T02:52:58;26.20;60.70
21425;DHT22;10873;51.132;16.848;2022-10-16T02:55:24;26.20;60.70
21425;DHT22;10873;51.132;16.848;2022-10-16T02:57:50;26.20;60.70
21425;DHT22;10873;51.132;16.848;2022-10-16T03:00:17;26.20;60.80
21425;DHT22;10873;51.132;16.848;2022-10-16T03:02:43;26.20;60.80
21425;DHT22;10873;51.132;16.848;2022-10-16T03:05:10;26.20;60.80
21425;DHT22;10873;51.132;16.848;2022-10-16T03:07:37;26.20;60.90
21425;DHT22;10873;51.132;16.848;2022-10-16T03:10:04;26.20;60.90
21425;DHT22;10873;51.132;16.848;2022-10-16T03:12:30;26.20;60.90
21425;DHT22;10873;51.132;16.848;2022-10-16T03:14:57;26.20;61.00
21425;DHT22;10873;51.132;16.848;2022-10-16T03:17:24;26.20;61.00
21425;DHT22;10873;51.132;16.848;2022-10-16T03:19:50;26.20;61.00
21425;DHT22;10873;51.132;16.848;2022-10-16T03:22:17;26.10;61.00
21425;DHT22;10873;51.132;16.848;2022-10-16T03:24:44;26.10;61.00
21425;DHT22;10873;51.132;16.848;2022-10-16T03:27:10;26.10;61.10
21425;DHT22;10873;51.132;16.848;2022-10-16T03:29:37;26.10;61.90
21425;DHT22;10873;51.132;16.848;2022-10-16T03:32:03;26.10;61.10
21425;DHT22;10873;51.132;16.848;2022-10-16T03:34:29;26.10;61.10
21425;DHT22;10873;51.132;16.848;2022-10-16T03:36:55;26.10;61.10
21425;DHT22;10873;51.132;16.848;2022-10-16T03:39:21;26.10;61.20
21425;DHT22;10873;51.132;16.848;2022-10-16T03:41:49;26.10;61.20
21425;DHT22;10873;51.132;16.848;2022-10-16T03:44:15;26.10;61.30
21425;DHT22;10873;51.132;16.848;2022-10-16T03:46:41;26.10;61.20
21425;DHT22;10873;51.132;16.848;2022-10-16T03:49:07;26.10;61.30
21425;DHT22;10873;51.132;16.848;2022-10-16T03:51:33;26.10;61.30
21425;DHT22;10873;51.132;16.848;2022-10-16T03:54:00;26.10;61.30
21425;DHT22;10873;51.132;16.848;2022-10-16T03:56:26;26.10;61.30
21425;DHT22;10873;51.132;16.848;2022-10-16T03:58:53;26.10;61.30
21425;DHT22;10873;51.132;16.848;2022-10-16T04:01:19;26.10;61.30
21425;DHT22;10873;51.132;16.848;2022-10-16T04:03:46;26.10;61.30
21425;DHT22;10873;51.132;16.848;2022-10-16T04:06:14;26.10;61.30
21425;DHT22;10873;51.132;16.848;2022-10-16T04:08:42;26.10;61.30
21425;DHT22;10873;51.132;16.848;2022-10-16T04:11:12;26.10;61.20
21425;DHT22;10873;51.132;16.848;2022-10-16T04:13:46;26.10;61.20
21425;DHT22;10873;51.132;16.848;2022-10-16T04:16:22;26.10;61.20
21425;DHT22;10873;51.132;16.848;2022-10-16T04:18:48;26.10;61.20
21425;DHT22;10873;51.132;16.848;2022-10-16T04:21:17;26.10;61.20
21425;DHT22;10873;51.132;16.848;2022-10-16T04:23:43;26.10;61.10
21425;DHT22;10873;51.132;16.848;2022-10-16T04:26:13;26.10;61.10
21425;DHT22;10873;51.132;16.848;2022-10-16T04:28:39;26.10;61.10
21425;DHT22;10873;51.132;16.848;2022-10-16T04:31:09;26.10;61.10
21425;DHT22;10873;51.132;16.848;2022-10-16T04:33:37;26.10;61.10
21425;DHT22;10873;51.132;16.848;2022-10-16T04:36:08;26.10;61.10
21425;DHT22;10873;51.132;16.848;2022-10-16T04:38:37;26.10;61.10
21425;DHT22;10873;51.132;16.848;2022-10-16T04:41:05;26.10;61.20
21425;DHT22;10873;51.132;16.848;2022-10-16T04:43:34;26.10;61.10
21425;DHT22;10873;51.132;16.848;2022-10-16T04:46:05;26.10;61.10
21425;DHT22;10873;51.132;16.848;2022-10-16T04:48:32;26.00;61.00
21425;DHT22;10873;51.132;16.848;2022-10-16T04:51:04;26.00;61.00
21425;DHT22;10873;51.132;16.848;2022-10-16T04:53:42;26.10;61.10
21425;DHT22;10873;51.132;16.848;2022-10-16T04:56:14;26.10;61.10
21425;DHT22;10873;51.132;16.848;2022-10-16T04:58:44;26.10;61.10
21425;DHT22;10873;51.132;16.848;2022-10-16T05:01:11;26.00;61.00
21425;DHT22;10873;51.132;16.848;2022-10-16T05:03:43;26.10;61.00
21425;DHT22;10873;51.132;16.848;2022-10-16T05:06:12;26.10;61.00
21425;DHT22;10873;51.132;16.848;2022-10-16T05:08:44;26.10;61.10
21425;DHT22;10873;51.132;16.848;2022-10-16T05:11:15;26.00;61.00
21425;DHT22;10873;51.132;16.848;2022-10-16T05:13:57;26.00;61.00
21425;DHT22;10873;51.132;16.848;2022-10-16T05:16:28;26.10;61.60
21425;DHT22;10873;51.132;16.848;2022-10-16T05:18:59;26.00;61.60
21425;DHT22;10873;51.132;16.848;2022-10-16T05:21:36;26.00;61.60
21425;DHT22;10873;51.132;16.848;2022-10-16T05:24:13;26.00;61.80
21425;DHT22;10873;51.132;16.848;2022-10-16T05:26:55;25.90;62.00
21425;DHT22;10873;51.132;16.848;2022-10-16T05:29:33;25.80;62.10
21425;DHT22;10873;51.132;16.848;2022-10-16T05:32:07;25.80;62.40
21425;DHT22;10873;51.132;16.848;2022-10-16T05:34:43;25.80;62.60
21425;DHT22;10873;51.132;16.848;2022-10-16T05:37:18;25.70;62.80
21425;DHT22;10873;51.132;16.848;2022-10-16T05:39:51;25.70;63.00
21425;DHT22;10873;51.132;16.848;2022-10-16T05:42:26;25.70;63.20
21425;DHT22;10873;51.132;16.848;2022-10-16T05:44:56;25.60;63.30
21425;DHT22;10873;51.132;16.848;2022-10-16T05:47:30;25.60;63.40
21425;DHT22;10873;51.132;16.848;2022-10-16T05:50:01;25.60;63.50
21425;DHT22;10873;51.132;16.848;2022-10-16T05:52:36;25.60;63.60
21425;DHT22;10873;51.132;16.848;2022-10-16T05:55:11;25.50;63.80
21425;DHT22;10873;51.132;16.848;2022-10-16T05:57:44;25.50;64.00
21425;DHT22;10873;51.132;16.848;2022-10-16T06:00:22;25.50;64.10
21425;DHT22;10873;51.132;16.848;2022-10-16T06:02:59;25.40;64.20
21425;DHT22;10873;51.132;16.848;2022-10-16T06:05:37;25.40;64.30
21425;DHT22;10873;51.132;16.848;2022-10-16T06:08:19;25.40;64.40
21425;DHT22;10873;51.132;16.848;2022-10-16T06:11:01;25.40;64.50
21425;DHT22;10873;51.132;16.848;2022-10-16T06:13:35;25.40;64.50
21425;DHT22;10873;51.132;16.848;2022-10-16T06:16:13;25.40;64.60
21425;DHT22;10873;51.132;16.848;2022-10-16T06:18:44;25.40;64.70
21425;DHT22;10873;51.132;16.848;2022-10-16T06:21:16;25.40;64.70
21425;DHT22;10873;51.132;16.848;2022-10-16T06:23:55;25.40;64.60
21425;DHT22;10873;51.132;16.848;2022-10-16T06:26:30;25.50;64.70
21425;DHT22;10873;51.132;16.848;2022-10-16T06:29:05;25.40;64.50
21425;DHT22;10873;51.132;16.848;2022-10-16T06:31:43;25.40;64.50
21425;DHT22;10873;51.132;16.848;2022-10-16T06:34:14;25.50;64.70
21425;DHT22;10873;51.132;16.848;2022-10-16T06:36:48;25.50;64.80
21425;DHT22;10873;51.132;16.848;2022-10-16T06:39:24;25.40;64.80
21425;DHT22;10873;51.132;16.848;2022-10-16T06:41:55;25.50;64.80
21425;DHT22;10873;51.132;16.848;2022-10-16T06:44:25;25.40;64.90
21425;DHT22;10873;51.132;16.848;2022-10-16T06:48:11;25.50;65.00
21425;DHT22;10873;51.132;16.848;2022-10-16T06:49:56;25.40;65.10
21425;DHT22;10873;51.132;16.848;2022-10-16T06:52:26;25.40;65.10
21425;DHT22;10873;51.132;16.848;2022-10-16T06:55:04;25.40;65.20
21425;DHT22;10873;51.132;16.848;2022-10-16T06:57:34;25.40;65.30
21425;DHT22;10873;51.132;16.848;2022-10-16T07:00:06;25.40;65.40
21425;DHT22;10873;51.132;16.848;2022-10-16T07:02:45;25.40;65.40
21425;DHT22;10873;51.132;16.848;2022-10-16T07:05:13;25.40;65.40
21425;DHT22;10873;51.132;16.848;2022-10-16T07:07:44;25.40;65.50
21425;DHT22;10873;51.132;16.848;2022-10-16T07:10:23;25.40;65.60
21425;DHT22;10873;51.132;16.848;2022-10-16T07:12:57;25.40;65.80
21425;DHT22;10873;51.132;16.848;2022-10-16T07:15:33;25.30;65.90
21425;DHT22;10873;51.132;16.848;2022-10-16T07:18:08;25.30;66.30
21425;DHT22;10873;51.132;16.848;2022-10-16T07:20:35;25.30;66.40
21425;DHT22;10873;51.132;16.848;2022-10-16T07:23:09;25.30;67.80
21425;DHT22;10873;51.132;16.848;2022-10-16T07:25:52;25.40;67.80
21425;DHT22;10873;51.132;16.848;2022-10-16T07:28:25;25.40;67.90
21425;DHT22;10873;51.132;16.848;2022-10-16T07:30:51;25.40;68.10
21425;DHT22;10873;51.132;16.848;2022-10-16T07:33:22;25.50;74.40
21425;DHT22;10873;51.132;16.848;2022-10-16T07:35:53;25.50;70.50
21425;DHT22;10873;51.132;16.848;2022-10-16T07:38:30;25.50;70.00
21425;DHT22;10873;51.132;16.848;2022-10-16T07:41:02;25.50;69.60
21425;DHT22;10873;51.132;16.848;2022-10-16T07:43:32;25.50;67.40
21425;DHT22;10873;51.132;16.848;2022-10-16T07:46:00;25.50;67.50
21425;DHT22;10873;51.132;16.848;2022-10-16T07:48:31;25.50;67.50
21425;DHT22;10873;51.132;16.848;2022-10-16T07:50:58;25.60;66.70
21425;DHT22;10873;51.132;16.848;2022-10-16T07:53:25;25.60;66.90
21425;DHT22;10873;51.132;16.848;2022-10-16T07:56:03;25.50;66.90
21425;DHT22;10873;51.132;16.848;2022-10-16T07:58:33;25.50;67.00
21425;DHT22;10873;51.132;16.848;2022-10-16T08:01:05;25.50;66.70
21425;DHT22;10873;51.132;16.848;2022-10-16T08:03:56;25.50;66.90
21425;DHT22;10873;51.132;16.848;2022-10-16T08:06:45;25.50;67.00
21425;DHT22;10873;51.132;16.848;2022-10-16T08:09:17;25.50;67.00
21425;DHT22;10873;51.132;16.848;2022-10-16T08:11:47;25.40;66.90
21425;DHT22;10873;51.132;16.848;2022-10-16T08:14:27;25.40;67.00
21425;DHT22;10873;51.132;16.848;2022-10-16T08:17:07;25.40;67.10
21425;DHT22;10873;51.132;16.848;2022-10-16T08:19:37;25.40;67.00
21425;DHT22;10873;51.132;16.848;2022-10-16T08:25:08;25.40;67.00
21425;DHT22;10873;51.132;16.848;2022-10-16T08:27:43;25.40;67.00
21425;DHT22;10873;51.132;16.848;2022-10-16T08:30:23;25.40;67.00
21425;DHT22;10873;51.132;16.848;2022-10-16T08:32:56;25.40;67.20
21425;DHT22;10873;51.132;16.848;2022-10-16T08:35:24;25.30;67.10
21425;DHT22;10873;51.132;16.848;2022-10-16T08:37:57;25.30;67.10
21425;DHT22;10873;51.132;16.848;2022-10-16T08:40:25;25.30;67.10
21425;DHT22;10873;51.132;16.848;2022-10-16T08:43:11;25.30;67.20
21425;DHT22;10873;51.132;16.848;2022-10-16T08:45:51;25.30;67.20
21425;DHT22;10873;51.132;16.848;2022-10-16T08:48:24;25.30;67.60
21425;DHT22;10873;51.132;16.848;2022-10-16T08:50:52;25.20;67.80
21425;DHT22;10873;51.132;16.848;2022-10-16T08:53:23;25.20;67.90
21425;DHT22;10873;51.132;16.848;2022-10-16T08:55:51;25.30;68.00
21425;DHT22;10873;51.132;16.848;2022-10-16T08:58:21;25.20;68.00
21425;DHT22;10873;51.132;16.848;2022-10-16T09:00:49;25.20;68.10
21425;DHT22;10873;51.132;16.848;2022-10-16T09:03:35;25.20;69.00
21425;DHT22;10873;51.132;16.848;2022-10-16T09:06:18;25.20;68.30
21425;DHT22;10873;51.132;16.848;2022-10-16T09:08:59;25.20;68.40
21425;DHT22;10873;51.132;16.848;2022-10-16T09:11:37;25.20;68.50
21425;DHT22;10873;51.132;16.848;2022-10-16T09:14:23;25.20;68.60
21425;DHT22;10873;51.132;16.848;2022-10-16T09:16:55;25.20;68.70
21425;DHT22;10873;51.132;16.848;2022-10-16T09:19:25;25.20;68.80
21425;DHT22;10873;51.132;16.848;2022-10-16T09:21:55;25.20;68.90
21425;DHT22;10873;51.132;16.848;2022-10-16T09:24:25;25.20;68.90
21425;DHT22;10873;51.132;16.848;2022-10-16T09:26:51;25.20;69.00
21425;DHT22;10873;51.132;16.848;2022-10-16T09:29:20;25.20;69.00
21425;DHT22;10873;51.132;16.848;2022-10-16T09:31:47;25.10;68.90
21425;DHT22;10873;51.132;16.848;2022-10-16T09:34:27;25.10;68.80
21425;DHT22;10873;51.132;16.848;2022-10-16T09:36:57;25.20;69.00
21425;DHT22;10873;51.132;16.848;2022-10-16T09:39:24;25.10;68.80
21425;DHT22;10873;51.132;16.848;2022-10-16T09:41:51;25.10;68.90
21425;DHT22;10873;51.132;16.848;2022-10-16T09:44:22;25.10;68.90
21425;DHT22;10873;51.132;16.848;2022-10-16T09:47:00;25.10;68.90
21425;DHT22;10873;51.132;16.848;2022-10-16T09:49:28;25.10;68.90
21425;DHT22;10873;51.132;16.848;2022-10-16T09:52:03;25.10;68.80
21425;DHT22;10873;51.132;16.848;2022-10-16T09:54:32;25.10;68.90
21425;DHT22;10873;51.132;16.848;2022-10-16T09:57:04;25.00;68.90
21425;DHT22;10873;51.132;16.848;2022-10-16T09:59:34;25.00;68.80
21425;DHT22;10873;51.132;16.848;2022-10-16T10:02:04;25.10;68.90
21425;DHT22;10873;51.132;16.848;2022-10-16T10:04:43;25.00;68.80
21425;DHT22;10873;51.132;16.848;2022-10-16T10:07:18;25.10;68.90
21425;DHT22;10873;51.132;16.848;2022-10-16T10:09:46;25.00;68.80
21425;DHT22;10873;51.132;16.848;2022-10-16T10:12:21;25.10;68.80
21425;DHT22;10873;51.132;16.848;2022-10-16T10:14:50;25.00;68.70
21425;DHT22;10873;51.132;16.848;2022-10-16T10:17:18;25.00;68.70
21425;DHT22;10873;51.132;16.848;2022-10-16T10:19:51;25.10;68.80
21425;DHT22;10873;51.132;16.848;2022-10-16T10:22:26;25.00;68.70
21425;DHT22;10873;51.132;16.848;2022-10-16T10:31:06;25.10;68.60
21425;DHT22;10873;51.132;16.848;2022-10-16T10:33:41;25.10;68.60
21425;DHT22;10873;51.132;16.848;2022-10-16T10:36:21;25.20;68.60
21425;DHT22;10873;51.132;16.848;2022-10-16T10:38:51;25.20;68.50
21425;DHT22;10873;51.132;16.848;2022-10-16T10:44:23;25.20;69.20
21425;DHT22;10873;51.132;16.848;2022-10-16T10:46:56;25.20;68.40
21425;DHT22;10873;51.132;16.848;2022-10-16T10:49:34;25.20;68.40
21425;DHT22;10873;51.132;16.848;2022-10-16T10:52:26;25.20;68.40
21425;DHT22;10873;51.132;16.848;2022-10-16T10:55:03;25.20;68.40
21425;DHT22;10873;51.132;16.848;2022-10-16T10:57:40;25.20;68.40
21425;DHT22;10873;51.132;16.848;2022-10-16T11:00:19;25.20;68.50
21425;DHT22;10873;51.132;16.848;2022-10-16T11:02:53;25.20;68.40
21425;DHT22;10873;51.132;16.848;2022-10-16T11:05:33;25.20;68.40
21425;DHT22;10873;51.132;16.848;2022-10-16T11:08:06;25.20;68.40
21425;DHT22;10873;51.132;16.848;2022-10-16T11:10:42;25.20;68.40
21425;DHT22;10873;51.132;16.848;2022-10-16T11:13:19;25.20;68.40
21425;DHT22;10873;51.132;16.848;2022-10-16T11:15:48;25.20;68.40
21425;DHT22;10873;51.132;16.848;2022-10-16T11:18:21;25.20;68.40
21425;DHT22;10873;51.132;16.848;2022-10-16T11:20:53;25.20;68.40
21425;DHT22;10873;51.132;16.848;2022-10-16T11:23:25;25.20;68.40
21425;DHT22;10873;51.132;16.848;2022-10-16T11:25:55;25.20;68.50
21425;DHT22;10873;51.132;16.848;2022-10-16T11:28:27;25.20;68.50
21425;DHT22;10873;51.132;16.848;2022-10-16T11:30:58;25.20;68.50
21425;DHT22;10873;51.132;16.848;2022-10-16T11:33:32;25.20;68.50
21425;DHT22;10873;51.132;16.848;2022-10-16T11:36:08;25.20;68.60
21425;DHT22;10873;51.132;16.848;2022-10-16T11:38:42;25.20;68.60
21425;DHT22;10873;51.132;16.848;2022-10-16T11:41:16;25.10;68.60
21425;DHT22;10873;51.132;16.848;2022-10-16T11:43:50;25.20;68.70
21425;DHT22;10873;51.132;16.848;2022-10-16T11:46:21;25.10;68.60
21425;DHT22;10873;51.132;16.848;2022-10-16T11:48:54;25.20;68.70
21425;DHT22;10873;51.132;16.848;2022-10-16T11:51:29;25.20;68.70
21425;DHT22;10873;51.132;16.848;2022-10-16T11:54:02;25.20;68.60
21425;DHT22;10873;51.132;16.848;2022-10-16T11:56:32;25.20;68.60
21425;DHT22;10873;51.132;16.848;2022-10-16T11:59:05;25.20;68.60
21425;DHT22;10873;51.132;16.848;2022-10-16T12:01:37;25.20;68.60
21425;DHT22;10873;51.132;16.848;2022-10-16T12:04:19;25.20;68.90
21425;DHT22;10873;51.132;16.848;2022-10-16T12:06:50;25.20;69.10
21425;DHT22;10873;51.132;16.848;2022-10-16T12:09:22;25.20;69.50
21425;DHT22;10873;51.132;16.848;2022-10-16T12:11:48;25.20;69.90
21425;DHT22;10873;51.132;16.848;2022-10-16T12:14:41;25.20;70.20
21425;DHT22;10873;51.132;16.848;2022-10-16T12:30:14;25.20;70.00
21425;DHT22;10873;51.132;16.848;2022-10-16T12:32:53;25.20;71.80
21425;DHT22;10873;51.132;16.848;2022-10-16T12:35:21;25.20;70.80
21425;DHT22;10873;51.132;16.848;2022-10-16T12:37:49;25.20;70.60
21425;DHT22;10873;51.132;16.848;2022-10-16T12:40:24;25.30;70.60
21425;DHT22;10873;51.132;16.848;2022-10-16T12:42:52;25.30;70.40
21425;DHT22;10873;51.132;16.848;2022-10-16T12:45:30;25.30;70.40
21425;DHT22;10873;51.132;16.848;2022-10-16T12:47:58;25.30;70.40
21425;DHT22;10873;51.132;16.848;2022-10-16T12:50:29;25.30;70.40
21425;DHT22;10873;51.132;16.848;2022-10-16T12:52:57;25.30;70.30
21425;DHT22;10873;51.132;16.848;2022-10-16T12:55:24;25.40;70.30
21425;DHT22;10873;51.132;16.848;2022-10-16T12:58:04;25.40;70.30
21425;DHT22;10873;51.132;16.848;2022-10-16T13:00:43;25.40;70.10
21425;DHT22;10873;51.132;16.848;2022-10-16T13:03:36;25.50;70.10
21425;DHT22;10873;51.132;16.848;2022-10-16T13:06:17;25.50;70.10
21425;DHT22;10873;51.132;16.848;2022-10-16T13:09:13;25.50;70.10
21425;DHT22;10873;51.132;16.848;2022-10-16T13:11:56;25.50;70.10
21425;DHT22;10873;51.132;16.848;2022-10-16T13:14:58;25.40;70.00
21425;DHT22;10873;51.132;16.848;2022-10-16T13:17:37;25.40;70.10
21425;DHT22;10873;51.132;16.848;2022-10-16T13:20:14;25.40;70.30
21425;DHT22;10873;51.132;16.848;2022-10-16T13:22:50;25.40;70.20
21425;DHT22;10873;51.132;16.848;2022-10-16T13:25:23;25.40;70.20
21425;DHT22;10873;51.132;16.848;2022-10-16T13:27:55;25.40;70.10
21425;DHT22;10873;51.132;16.848;2022-10-16T13:30:24;25.40;70.10
21425;DHT22;10873;51.132;16.848;2022-10-16T13:32:57;25.40;70.10
21425;DHT22;10873;51.132;16.848;2022-10-16T13:35:26;25.40;70.20
21425;DHT22;10873;51.132;16.848;2022-10-16T13:38:04;25.30;70.00
21425;DHT22;10873;51.132;16.848;2022-10-16T13:40:30;25.30;70.00
21425;DHT22;10873;51.132;16.848;2022-10-16T13:42:56;25.30;70.00
21425;DHT22;10873;51.132;16.848;2022-10-16T13:45:25;25.30;70.00
21425;DHT22;10873;51.132;16.848;2022-10-16T13:48:03;25.30;70.00
21425;DHT22;10873;51.132;16.848;2022-10-16T13:50:29;25.20;69.90
21425;DHT22;10873;51.132;16.848;2022-10-16T13:53:03;25.30;69.90
21425;DHT22;10873;51.132;16.848;2022-10-16T13:55:31;25.20;69.80
21425;DHT22;10873;51.132;16.848;2022-10-16T13:58:05;25.20;69.80
21425;DHT22;10873;51.132;16.848;2022-10-16T14:00:31;25.30;69.90
21425;DHT22;10873;51.132;16.848;2022-10-16T14:03:03;25.30;69.90
21425;DHT22;10873;51.132;16.848;2022-10-16T14:05:30;25.20;69.80
21425;DHT22;10873;51.132;16.848;2022-10-16T14:07:56;25.30;69.80
21425;DHT22;10873;51.132;16.848;2022-10-16T14:10:25;25.20;69.70
21425;DHT22;10873;51.132;16.848;2022-10-16T14:12:56;25.20;69.70
21425;DHT22;10873;51.132;16.848;2022-10-16T14:15:23;25.20;69.60
21425;DHT22;10873;51.132;16.848;2022-10-16T14:17:51;25.20;69.60
21425;DHT22;10873;51.132;16.848;2022-10-16T14:20:24;25.20;69.60
21425;DHT22;10873;51.132;16.848;2022-10-16T14:22:59;25.20;69.60
21425;DHT22;10873;51.132;16.848;2022-10-16T14:25:28;25.20;69.60
21425;DHT22;10873;51.132;16.848;2022-10-16T14:28:01;25.20;69.50
21425;DHT22;10873;51.132;16.848;2022-10-16T14:30:29;25.20;69.50
21425;DHT22;10873;51.132;16.848;2022-10-16T14:32:57;25.20;69.50
21425;DHT22;10873;51.132;16.848;2022-10-16T14:35:28;25.20;69.50
21425;DHT22;10873;51.132;16.848;2022-10-16T14:37:56;25.20;69.50
21425;DHT22;10873;51.132;16.848;2022-10-16T14:40:26;25.20;69.50
21425;DHT22;10873;51.132;16.848;2022-10-16T14:42:53;25.20;69.60
21425;DHT22;10873;51.132;16.848;2022-10-16T14:45:21;25.30;70.40
21425;DHT22;10873;51.132;16.848;2022-10-16T14:47:50;25.30;69.50
21425;DHT22;10873;51.132;16.848;2022-10-16T14:50:17;25.40;69.40
21425;DHT22;10873;51.132;16.848;2022-10-16T14:52:44;25.40;69.20
21425;DHT22;10873;51.132;16.848;2022-10-16T14:55:11;25.50;69.00
21425;DHT22;10873;51.132;16.848;2022-10-16T14:57:38;25.50;68.80
21425;DHT22;10873;51.132;16.848;2022-10-16T15:00:13;25.60;68.60
21425;DHT22;10873;51.132;16.848;2022-10-16T15:02:41;25.60;68.50
21425;DHT22;10873;51.132;16.848;2022-10-16T15:05:13;25.70;68.40
21425;DHT22;10873;51.132;16.848;2022-10-16T15:07:39;25.70;68.30
21425;DHT22;10873;51.132;16.848;2022-10-16T15:10:07;25.80;68.30
21425;DHT22;10873;51.132;16.848;2022-10-16T15:12:33;25.80;68.10
21425;DHT22;10873;51.132;16.848;2022-10-16T15:14:59;25.80;68.10
21425;DHT22;10873;51.132;16.848;2022-10-16T15:17:25;25.80;68.00
21425;DHT22;10873;51.132;16.848;2022-10-16T15:19:52;25.90;68.00
21425;DHT22;10873;51.132;16.848;2022-10-16T15:22:18;25.90;68.00
21425;DHT22;10873;51.132;16.848;2022-10-16T15:24:44;25.90;67.90
21425;DHT22;10873;51.132;16.848;2022-10-16T15:27:11;25.90;67.90
21425;DHT22;10873;51.132;16.848;2022-10-16T15:29:38;25.90;67.80
21425;DHT22;10873;51.132;16.848;2022-10-16T15:32:04;25.90;67.80
21425;DHT22;10873;51.132;16.848;2022-10-16T15:34:31;26.00;67.80
21425;DHT22;10873;51.132;16.848;2022-10-16T15:36:57;26.00;67.70
21425;DHT22;10873;51.132;16.848;2022-10-16T15:39:23;26.00;67.70
21425;DHT22;10873;51.132;16.848;2022-10-16T15:41:49;26.00;67.60
21425;DHT22;10873;51.132;16.848;2022-10-16T15:44:18;26.00;67.60
21425;DHT22;10873;51.132;16.848;2022-10-16T15:46:45;26.00;67.50
21425;DHT22;10873;51.132;16.848;2022-10-16T15:49:11;26.00;67.50
21425;DHT22;10873;51.132;16.848;2022-10-16T15:51:38;26.00;67.60
21425;DHT22;10873;51.132;16.848;2022-10-16T15:54:05;26.00;68.30
21425;DHT22;10873;51.132;16.848;2022-10-16T15:56:31;26.00;67.70
21425;DHT22;10873;51.132;16.848;2022-10-16T15:58:59;26.00;67.70
21425;DHT22;10873;51.132;16.848;2022-10-16T16:01:27;26.00;67.70
21425;DHT22;10873;51.132;16.848;2022-10-16T16:03:55;26.00;67.70
21425;DHT22;10873;51.132;16.848;2022-10-16T16:06:22;26.00;67.80